createdAt,value
2018-01-21T00:51:24.666Z,99685.55
2018-01-21T00:53:52.993Z,99690.48
2018-01-21T00:56:21.309Z,99701.31
2018-01-21T00:58:49.658Z,99704.94
2018-01-21T01:01:17.990Z,99714.87
2018-01-21T01:03:46.321Z,99723.44
2018-01-21T01:06:14.650Z,99721.31
2018-01-21T01:08:42.991Z,99730.59
2018-01-21T01:11:11.307Z,99737.64
2018-01-21T01:13:39.655Z,99741.37
2018-01-21T01:16:07.974Z,99741.12
2018-01-21T01:18:36.317Z,99748.39
2018-01-21T01:21:04.634Z,99758.25
2018-01-21T01:23:32.970Z,99757.11
2018-01-21T01:26:01.286Z,99758.27
2018-01-21T01:28:29.618Z,99766.85
2018-01-21T01:30:57.935Z,99763.36
2018-01-21T01:33:26.273Z,99778.98
2018-01-21T01:35:54.587Z,99784.73
2018-01-21T01:38:22.913Z,99788.48
2018-01-21T01:40:51.225Z,99798.92
2018-01-21T01:43:19.565Z,99804.12
2018-01-21T01:45:47.882Z,99802.73
2018-01-21T01:48:16.271Z,99811.58
2018-01-21T01:50:44.562Z,99813.49
2018-01-21T01:53:12.898Z,99813.41
2018-01-21T01:55:41.210Z,99821.94
2018-01-21T01:58:09.554Z,99826.16
2018-01-21T02:00:37.875Z,99822.48
2018-01-21T02:03:06.215Z,99830.01
2018-01-21T02:05:34.519Z,99830.69
2018-01-21T02:08:02.849Z,99831.92
2018-01-21T02:10:31.165Z,99834.88
2018-01-21T02:12:59.502Z,99832.03
2018-01-21T02:15:27.833Z,99840.25
2018-01-21T02:17:56.154Z,99849.16
2018-01-21T02:20:24.460Z,99847.57
2018-01-21T02:22:52.797Z,99853.50
2018-01-21T02:25:21.109Z,99855.02
2018-01-21T02:27:49.442Z,99854.41
2018-01-21T02:30:17.754Z,99855.42
2018-01-21T02:32:46.086Z,99855.96
2018-01-21T02:35:14.390Z,99857.61
2018-01-21T02:37:42.701Z,99864.13
2018-01-21T02:40:11.037Z,99871.23
2018-01-21T02:42:39.354Z,99875.14
2018-01-21T02:45:07.694Z,99875.02
2018-01-21T02:47:36.002Z,99878.84
2018-01-21T02:50:04.330Z,99883.90
2018-01-21T02:52:32.642Z,99887.31
2018-01-21T02:55:00.982Z,99896.38
2018-01-21T02:57:29.297Z,99902.15
2018-01-21T02:59:57.630Z,99899.44
2018-01-21T03:02:25.942Z,99902.77
2018-01-21T03:04:54.281Z,99914.56
2018-01-21T03:07:22.598Z,99920.62
2018-01-21T03:09:50.941Z,99929.27
2018-01-21T03:12:19.254Z,99929.34
2018-01-21T03:14:47.607Z,99938.58
2018-01-21T03:17:15.946Z,99933.83
2018-01-21T03:19:44.289Z,99944.94
2018-01-21T03:22:12.611Z,99940.80
2018-01-21T03:24:40.951Z,99948.06
2018-01-21T03:27:09.257Z,99954.47
2018-01-21T03:29:37.589Z,99961.09
2018-01-21T03:32:05.915Z,99965.89
2018-01-21T03:34:34.254Z,99968.18
2018-01-21T03:37:02.581Z,99971.91
2018-01-21T03:39:30.922Z,99976.25
2018-01-21T03:41:59.237Z,99978.92
2018-01-21T03:44:27.572Z,99990.52
2018-01-21T03:46:55.885Z,99990.91
2018-01-21T03:49:24.226Z,100000.11
2018-01-21T03:51:52.558Z,100004.34
2018-01-21T03:54:20.905Z,100009.72
2018-01-21T03:56:49.233Z,100010.41
2018-01-21T03:59:17.585Z,100016.50
2018-01-21T04:01:45.905Z,100020.88
2018-01-21T04:04:14.260Z,100025.81
2018-01-21T04:06:42.589Z,100026.92
2018-01-21T04:09:10.986Z,100030.63
2018-01-21T04:11:39.329Z,100037.70
2018-01-21T04:14:07.693Z,100043.20
2018-01-21T04:16:36.085Z,100046.86
2018-01-21T04:19:04.434Z,100045.77
2018-01-21T04:21:32.757Z,100055.86
2018-01-21T04:24:01.114Z,100061.22
2018-01-21T04:26:29.493Z,100068.85
2018-01-21T04:28:57.837Z,100070.86
2018-01-21T04:31:26.249Z,100076.91
2018-01-21T04:33:54.593Z,100086.20
2018-01-21T04:36:22.918Z,100087.93
2018-01-21T04:38:51.233Z,100084.02
2018-01-21T04:41:19.578Z,100092.98
2018-01-21T04:43:47.930Z,100096.36
2018-01-21T04:46:16.274Z,100100.78
2018-01-21T04:48:44.686Z,100105.95
2018-01-21T04:51:13.025Z,100111.86
2018-01-21T04:53:41.345Z,100107.86
2018-01-21T04:56:09.713Z,100116.96
2018-01-21T04:58:38.085Z,100127.01
2018-01-21T05:01:06.434Z,100131.69
2018-01-21T05:03:34.825Z,100126.38
2018-01-21T05:06:03.226Z,100135.84
2018-01-21T05:08:31.601Z,100134.53
2018-01-21T05:10:59.977Z,100141.94
2018-01-21T05:13:28.292Z,100142.69
2018-01-21T05:15:56.638Z,100141.52
2018-01-21T05:18:24.964Z,100142.70
2018-01-21T05:20:53.313Z,100150.11
2018-01-21T05:23:21.633Z,100155.20
2018-01-21T05:25:49.981Z,100157.05
2018-01-21T05:28:18.414Z,100165.91
2018-01-21T05:30:46.789Z,100170.59
2018-01-21T05:33:15.121Z,100165.97
2018-01-21T05:35:43.469Z,100168.27
2018-01-21T05:38:11.813Z,100172.20
2018-01-21T05:40:40.152Z,100171.32
2018-01-21T05:43:10.009Z,100181.20
2018-01-21T05:45:38.364Z,100187.34
2018-01-21T05:48:06.685Z,100199.89
2018-01-21T05:50:35.965Z,100198.07
2018-01-21T05:53:04.341Z,100202.33
2018-01-21T05:55:33.261Z,100216.84
2018-01-21T05:58:01.606Z,100222.20
2018-01-21T06:00:29.985Z,100226.39
2018-01-21T06:02:58.357Z,100219.29
2018-01-21T06:05:26.790Z,100227.37
2018-01-21T06:07:55.113Z,100235.33
2018-01-21T06:10:23.469Z,100240.73
2018-01-21T06:12:51.797Z,100250.98
2018-01-21T06:15:20.145Z,100251.33
2018-01-21T06:17:48.517Z,100253.28
2018-01-21T06:20:16.865Z,100257.15
2018-01-21T06:22:45.202Z,100254.05
2018-01-21T06:25:13.557Z,100257.78
2018-01-21T06:27:41.885Z,100259.81
2018-01-21T06:30:10.237Z,100263.76
2018-01-21T06:32:38.578Z,100271.60
2018-01-21T06:35:06.933Z,100275.47
2018-01-21T06:37:35.262Z,100287.31
2018-01-21T06:40:04.414Z,100294.23
2018-01-21T06:42:32.745Z,100296.48
2018-01-21T06:45:01.069Z,100307.99
2018-01-21T06:47:29.428Z,100317.98
2018-01-21T06:49:57.758Z,100315.56
2018-01-21T06:52:26.118Z,100325.06
2018-01-21T06:54:54.445Z,100327.36
2018-01-21T06:57:22.797Z,100339.96
2018-01-21T06:59:51.127Z,100342.20
2018-01-21T07:02:19.477Z,100349.37
2018-01-21T07:04:47.815Z,100353.84
2018-01-21T07:07:16.171Z,100355.23
2018-01-21T07:09:44.505Z,100362.06
2018-01-21T07:12:12.850Z,100366.14
2018-01-21T07:14:41.190Z,100375.45
2018-01-21T07:17:09.596Z,100376.23
2018-01-21T07:19:37.931Z,100382.28
2018-01-21T07:22:06.277Z,100390.92
2018-01-21T07:24:34.611Z,100388.63
2018-01-21T07:27:02.970Z,100399.54
2018-01-21T07:29:31.318Z,100402.05
2018-01-21T07:31:59.674Z,100403.70
2018-01-21T07:34:28.007Z,100411.52
2018-01-21T07:36:56.362Z,100419.70
2018-01-21T07:39:24.697Z,100429.64
2018-01-21T07:41:53.058Z,100427.07
2018-01-21T07:44:21.382Z,100428.38
2018-01-21T07:46:49.735Z,100440.45
2018-01-21T07:49:18.071Z,100440.02
2018-01-21T07:51:46.423Z,100446.06
2018-01-21T07:54:14.759Z,100447.77
2018-01-21T07:56:43.114Z,100457.37
2018-01-21T07:59:11.453Z,100465.13
2018-01-21T08:01:39.805Z,100466.34
2018-01-21T08:04:08.147Z,100475.51
2018-01-21T08:06:36.505Z,100478.58
2018-01-21T08:09:04.833Z,100493.08
2018-01-21T08:11:33.191Z,100496.25
2018-01-21T08:14:01.518Z,100506.82
2018-01-21T08:16:29.885Z,100502.36
2018-01-21T08:18:58.227Z,100503.97
2018-01-21T08:21:26.579Z,100504.78
2018-01-21T08:23:54.938Z,100503.53
2018-01-21T08:26:23.289Z,100498.06
2018-01-21T08:28:51.686Z,100511.78
2018-01-21T08:31:20.038Z,100508.89
2018-01-21T08:33:53.938Z,100514.45
2018-01-21T08:36:27.949Z,100511.89
2018-01-21T08:39:01.994Z,100521.72
2018-01-21T08:44:36.021Z,100530.24
2018-01-21T08:47:04.370Z,100535.11
2018-01-21T08:49:32.706Z,100544.30
2018-01-21T08:52:01.058Z,100544.29
2018-01-21T08:54:29.389Z,100555.71
2018-01-21T08:56:57.809Z,100551.50
2018-01-21T08:59:26.144Z,100553.96
2018-01-21T09:01:54.498Z,100556.09
2018-01-21T09:04:22.836Z,100562.20
2018-01-21T09:06:51.266Z,100573.48
2018-01-21T09:09:19.601Z,100578.77
2018-01-21T09:11:48.310Z,100579.98
2018-01-21T09:14:18.129Z,100582.81
2018-01-21T09:16:48.163Z,100585.16
2018-01-21T09:19:16.469Z,100591.56
2018-01-21T09:21:44.821Z,100596.56
2018-01-21T09:24:13.950Z,100602.03
2018-01-21T09:26:45.220Z,100604.56
2018-01-21T09:29:13.569Z,100611.16
2018-01-21T09:31:41.925Z,100605.00
2018-01-21T09:34:10.276Z,100611.16
2018-01-21T09:36:38.601Z,100609.36
2018-01-21T09:39:06.981Z,100610.15
2018-01-21T09:41:35.312Z,100623.11
2018-01-21T09:44:03.729Z,100630.02
2018-01-21T09:46:32.106Z,100636.97
2018-01-21T09:49:00.503Z,100633.03
2018-01-21T09:51:29.066Z,100640.94
2018-01-21T09:53:57.417Z,100648.63
2018-01-21T09:56:25.741Z,100657.92
2018-01-21T09:58:54.085Z,100658.33
2018-01-21T10:01:22.541Z,100661.55
2018-01-21T10:03:50.953Z,100671.52
2018-01-21T10:06:19.273Z,100666.59
2018-01-21T10:08:47.620Z,100676.77
2018-01-21T10:11:15.961Z,100687.52
2018-01-21T10:13:44.357Z,100693.67
2018-01-21T10:16:12.708Z,100697.34
2018-01-21T10:18:41.279Z,100701.08
2018-01-21T10:21:09.585Z,100704.87
2018-01-21T10:23:37.977Z,100709.53
2018-01-21T10:26:07.276Z,100698.84
2018-01-21T10:28:35.669Z,100707.05
2018-01-21T10:31:03.994Z,100708.69
2018-01-21T10:33:32.403Z,100715.15
2018-01-21T10:36:02.530Z,100712.86
2018-01-21T10:38:30.869Z,100716.80
2018-01-21T10:40:59.224Z,100720.41
2018-01-21T10:43:27.742Z,100716.30
2018-01-21T10:45:56.062Z,100723.20
2018-01-21T10:48:24.408Z,100727.12
2018-01-21T10:50:52.786Z,100728.77
2018-01-21T10:53:21.106Z,100736.10
2018-01-21T10:55:50.457Z,100736.05
2018-01-21T10:58:18.805Z,100740.86
2018-01-21T11:00:52.742Z,100743.48
2018-01-21T11:03:21.121Z,100741.70
2018-01-21T11:05:49.446Z,100749.72
2018-01-21T11:08:17.790Z,100766.19
2018-01-21T11:10:46.114Z,100763.08
2018-01-21T11:13:14.453Z,100770.41
2018-01-21T11:15:43.681Z,100767.62
2018-01-21T11:18:12.025Z,100769.86
2018-01-21T11:20:41.298Z,100771.94
2018-01-21T11:23:09.645Z,100778.67
2018-01-21T11:25:38.049Z,100776.00
2018-01-21T11:28:06.398Z,100779.84
2018-01-21T11:30:34.725Z,100785.47
2018-01-21T11:33:03.079Z,100781.69
2018-01-21T11:35:31.406Z,100786.40
2018-01-21T11:37:59.748Z,100790.77
2018-01-21T11:40:28.778Z,100791.25
2018-01-21T11:42:57.120Z,100786.29
2018-01-21T11:45:25.480Z,100787.06
2018-01-21T11:47:53.986Z,100782.63
2018-01-21T11:50:22.485Z,100780.44
2018-01-21T11:52:50.818Z,100781.75
2018-01-21T11:55:19.243Z,100779.16
2018-01-21T11:57:47.621Z,100779.55
2018-01-21T12:00:15.996Z,100779.11
2018-01-21T12:02:44.421Z,100777.10
2018-01-21T12:05:12.766Z,100778.73
2018-01-21T12:07:41.173Z,100779.89
2018-01-21T12:10:09.570Z,100774.67
2018-01-21T12:12:37.894Z,100778.95
2018-01-21T12:15:06.366Z,100776.31
2018-01-21T12:17:34.698Z,100784.70
2018-01-21T12:20:03.042Z,100789.61
2018-01-21T12:22:31.494Z,100783.05
2018-01-21T12:24:59.848Z,100779.81
2018-01-21T12:27:28.190Z,100789.29
2018-01-21T12:29:56.573Z,100784.86
2018-01-21T12:32:24.935Z,100785.39
2018-01-21T12:34:53.333Z,100784.52
2018-01-21T12:37:21.849Z,100790.25
2018-01-21T12:39:50.961Z,100789.77
2018-01-21T12:42:19.297Z,100791.73
2018-01-21T12:44:47.657Z,100788.02
2018-01-21T12:47:15.991Z,100796.30
2018-01-21T12:49:44.407Z,100802.81
2018-01-21T12:52:12.790Z,100804.84
2018-01-21T12:54:41.134Z,100806.06
2018-01-21T12:57:09.549Z,100804.65
2018-01-21T12:59:38.589Z,100809.33
2018-01-21T13:02:07.009Z,100812.20
2018-01-21T13:04:35.389Z,100815.25
2018-01-21T13:07:03.714Z,100818.31
2018-01-21T13:09:32.061Z,100816.61
2018-01-21T13:12:00.389Z,100820.41
2018-01-21T13:14:28.792Z,100824.84
2018-01-21T13:16:57.124Z,100826.53
2018-01-21T13:19:25.533Z,100836.12
2018-01-21T13:21:53.861Z,100835.48
2018-01-21T13:24:22.197Z,100840.16
2018-01-21T13:26:50.545Z,100841.41
2018-01-21T13:29:18.953Z,100840.06
2018-01-21T13:31:47.329Z,100840.16
2018-01-21T13:34:15.665Z,100840.11
2018-01-21T13:36:44.030Z,100846.63
2018-01-21T13:39:13.029Z,100847.94
2018-01-21T13:41:41.381Z,100858.92
2018-01-21T13:44:09.712Z,100863.69
2018-01-21T13:46:38.088Z,100863.83
2018-01-21T13:49:06.486Z,100862.33
2018-01-21T13:51:34.861Z,100861.45
2018-01-21T13:54:03.237Z,100866.07
2018-01-21T13:56:31.585Z,100863.34
2018-01-21T13:58:59.918Z,100863.50
2018-01-21T14:01:28.281Z,100866.13
2018-01-21T14:03:56.609Z,100867.43
2018-01-21T14:06:24.934Z,100871.44
2018-01-21T14:08:53.290Z,100873.22
2018-01-21T14:11:21.609Z,100882.86
2018-01-21T14:13:49.962Z,100888.20
2018-01-21T14:16:18.325Z,100884.88
2018-01-21T14:18:47.522Z,100881.64
2018-01-21T14:21:15.840Z,100887.98
2018-01-21T14:23:44.181Z,100893.58
2018-01-21T14:26:12.505Z,100894.81
2018-01-21T14:28:40.934Z,100896.64
2018-01-21T14:31:09.305Z,100905.55
2018-01-21T14:33:37.648Z,100894.63
2018-01-21T14:36:06.062Z,100889.41
2018-01-21T14:38:34.407Z,100899.08
2018-01-21T14:41:02.798Z,100902.53
2018-01-21T14:43:31.143Z,100907.70
2018-01-21T14:45:59.573Z,100907.85
2018-01-21T14:48:27.929Z,100914.62
2018-01-21T14:50:56.249Z,100921.73
2018-01-21T14:53:24.623Z,100918.78
2018-01-21T14:55:52.962Z,100919.59
2018-01-21T14:58:21.789Z,100924.87
2018-01-21T15:00:50.256Z,100920.42
2018-01-21T15:03:18.561Z,100922.06
2018-01-21T15:05:47.913Z,100926.91
2018-01-21T15:08:16.245Z,100920.16
2018-01-21T15:10:44.692Z,100932.53
2018-01-21T15:13:13.050Z,100932.80
2018-01-21T15:15:45.704Z,100934.06
2018-01-21T15:18:18.657Z,100932.91
2018-01-21T15:20:46.989Z,100937.08
2018-01-21T15:23:15.361Z,100941.92
2018-01-21T15:25:43.722Z,100946.70
2018-01-21T15:28:12.045Z,100939.41
2018-01-21T15:30:40.502Z,100941.23
2018-01-21T15:33:08.873Z,100945.93
2018-01-21T15:35:37.307Z,100950.63
2018-01-21T15:38:05.675Z,100951.21
2018-01-21T15:40:33.994Z,100950.09
2018-01-21T15:43:02.364Z,100938.31
2018-01-21T15:45:30.858Z,100935.73
2018-01-21T15:47:59.226Z,100929.13
2018-01-21T15:50:27.553Z,100923.88
2018-01-21T15:52:55.897Z,100933.79
2018-01-21T15:55:24.225Z,100932.98
2018-01-21T15:57:52.577Z,100936.60
2018-01-21T16:00:20.897Z,100934.73
2018-01-21T16:02:49.246Z,100937.40
2018-01-21T16:05:17.560Z,100936.45
2018-01-21T16:07:45.902Z,100946.66
2018-01-21T16:10:14.230Z,100947.09
2018-01-21T16:12:42.595Z,100947.57
2018-01-21T16:15:10.913Z,100943.20
2018-01-21T16:17:39.251Z,100934.48
2018-01-21T16:20:07.574Z,100936.67
2018-01-21T16:22:35.960Z,100943.16
2018-01-21T16:25:04.246Z,100944.51
2018-01-21T16:27:32.626Z,100941.52
2018-01-21T16:30:00.949Z,100934.45
2018-01-21T16:32:29.397Z,100926.94
2018-01-21T16:34:57.719Z,100931.43
2018-01-21T16:37:37.793Z,100934.09
2018-01-21T16:40:06.118Z,100924.80
2018-01-21T16:42:34.462Z,100919.55
2018-01-21T16:45:02.793Z,100920.86
2018-01-21T16:47:31.170Z,100917.80
2018-01-21T16:50:00.377Z,100901.10
2018-01-21T16:52:28.729Z,100901.30
2018-01-21T16:54:57.062Z,100889.84
2018-01-21T16:57:25.383Z,100871.92
2018-01-21T16:59:53.738Z,100869.77
2018-01-21T17:02:22.226Z,100867.27
2018-01-21T17:04:50.569Z,100863.45
2018-01-21T17:07:18.890Z,100856.34
2018-01-21T17:09:47.232Z,100848.55
2018-01-21T17:12:15.562Z,100849.38
2018-01-21T17:14:43.967Z,100848.51
2018-01-21T17:17:12.304Z,100853.91
2018-01-21T17:19:40.642Z,100861.08
2018-01-21T17:22:09.260Z,100876.31
2018-01-21T17:24:37.633Z,100880.31
2018-01-21T17:27:05.959Z,100882.36
2018-01-21T17:29:34.980Z,100887.64
2018-01-21T17:32:03.378Z,100889.82
2018-01-21T17:34:31.733Z,100894.66
2018-01-21T17:37:00.146Z,100885.99
2018-01-21T17:39:28.509Z,100889.52
2018-01-21T17:41:56.903Z,100899.73
2018-01-21T17:44:25.262Z,100901.98
2018-01-21T17:46:53.598Z,100911.67
2018-01-21T17:49:22.509Z,100920.88
2018-01-21T17:51:50.846Z,100925.35
2018-01-21T17:54:19.246Z,100922.21
2018-01-21T17:56:47.587Z,100923.62
2018-01-21T17:59:15.911Z,100928.48
2018-01-21T18:01:44.242Z,100916.23
2018-01-21T18:04:12.578Z,100917.08
2018-01-21T18:06:40.898Z,100918.42
2018-01-21T18:09:09.361Z,100912.22
2018-01-21T18:11:37.685Z,100913.97
2018-01-21T18:14:06.037Z,100910.51
2018-01-21T18:16:34.357Z,100909.52
2018-01-21T18:19:02.729Z,100914.09
2018-01-21T18:21:31.245Z,100919.02
2018-01-21T18:24:00.494Z,100916.77
2018-01-21T18:26:28.867Z,100918.14
2018-01-21T18:28:58.448Z,100911.68
2018-01-21T18:31:30.326Z,100907.59
2018-01-21T18:33:59.912Z,100911.16
2018-01-21T18:36:29.736Z,100910.02
2018-01-21T18:38:58.213Z,100919.64
2018-01-21T18:41:26.569Z,100921.84
2018-01-21T18:43:54.910Z,100917.06
2018-01-21T18:46:23.250Z,100911.97
2018-01-21T18:48:52.546Z,100918.34
2018-01-21T18:51:20.921Z,100904.36
2018-01-21T18:53:49.277Z,100896.86
2018-01-21T18:56:17.621Z,100887.22
2018-01-21T18:58:45.981Z,100891.06
2018-01-21T19:01:14.333Z,100889.87
2018-01-21T19:03:42.785Z,100884.63
2018-01-21T19:06:11.170Z,100880.23
2018-01-21T19:08:40.320Z,100877.45
2018-01-21T19:11:09.931Z,100870.83
2018-01-21T19:13:38.542Z,100873.28
2018-01-21T19:16:06.953Z,100874.96
2018-01-21T19:18:35.255Z,100872.77
2018-01-21T19:21:03.598Z,100872.34
2018-01-21T19:23:32.053Z,100868.04
2018-01-21T19:26:01.394Z,100864.00
2018-01-21T19:28:29.736Z,100864.88
2018-01-21T19:30:58.097Z,100871.90
2018-01-21T19:33:26.435Z,100868.77
2018-01-21T19:35:55.770Z,100866.98
2018-01-21T19:38:29.550Z,100867.86
2018-01-21T19:44:15.634Z,100858.72
2018-01-21T19:46:44.143Z,100855.73
2018-01-21T19:49:12.507Z,100851.80
2018-01-21T19:51:40.868Z,100852.23
2018-01-21T19:54:09.177Z,100842.62
2018-01-21T19:56:37.751Z,100845.68
2018-01-21T19:59:06.057Z,100841.75
2018-01-21T20:01:34.446Z,100841.30
2018-01-21T20:04:03.537Z,100845.68
2018-01-21T20:06:31.880Z,100844.80
2018-01-21T20:09:00.277Z,100835.59
2018-01-21T20:11:28.587Z,100832.24
2018-01-21T20:13:57.082Z,100810.54
2018-01-21T20:16:25.427Z,100800.13
2018-01-21T20:18:53.805Z,100801.11
2018-01-21T20:21:22.817Z,100785.83
2018-01-21T20:23:51.150Z,100779.74
2018-01-21T20:26:19.513Z,100775.78
2018-01-21T20:28:47.837Z,100766.13
2018-01-21T20:31:16.310Z,100772.25
2018-01-21T20:33:44.633Z,100778.40
2018-01-21T20:36:12.996Z,100775.08
2018-01-21T20:38:41.385Z,100771.15
2018-01-21T20:41:09.807Z,100766.85
2018-01-21T20:43:38.166Z,100772.93
2018-01-21T20:46:06.571Z,100767.69
2018-01-21T20:48:34.854Z,100769.84
2018-01-21T20:51:08.933Z,100769.41
2018-01-21T20:53:42.996Z,100766.28
2018-01-21T20:56:11.382Z,100759.25
2018-01-21T20:58:39.702Z,100754.73
2018-01-21T21:01:08.198Z,100767.15
2018-01-21T21:03:36.584Z,100747.82
2018-01-21T21:06:04.925Z,100740.91
2018-01-21T21:08:33.530Z,100764.97
2018-01-21T21:11:01.874Z,100760.27
2018-01-21T21:13:31.485Z,100752.44
2018-01-21T21:15:59.830Z,100765.67
2018-01-21T21:18:28.168Z,100752.14
2018-01-21T21:20:56.558Z,100743.41
2018-01-21T21:23:24.998Z,100738.07
2018-01-21T21:25:53.935Z,100732.91
2018-01-21T21:28:22.925Z,100735.55
2018-01-21T21:30:51.330Z,100726.69
2018-01-21T21:33:19.678Z,100723.19
2018-01-21T21:35:48.029Z,100723.62
2018-01-21T21:38:16.381Z,100717.44
2018-01-21T21:40:45.786Z,100707.91
2018-01-21T21:43:14.134Z,100707.39
2018-01-21T21:45:42.507Z,100704.34
2018-01-21T21:48:10.826Z,100708.30
2018-01-21T21:50:39.346Z,100709.66
2018-01-21T21:53:07.685Z,100734.61
2018-01-21T21:55:36.085Z,100743.34
2018-01-21T21:58:04.454Z,100737.47
2018-01-21T22:00:33.105Z,100744.83
2018-01-21T22:03:01.441Z,100743.85
2018-01-21T22:05:29.785Z,100731.05
2018-01-21T22:07:58.109Z,100718.94
2018-01-21T22:10:26.883Z,100700.05
2018-01-21T22:12:55.537Z,100694.73
2018-01-21T22:15:23.885Z,100698.77
2018-01-21T22:17:52.233Z,100704.38
2018-01-21T22:20:20.553Z,100697.11
2018-01-21T22:22:48.901Z,100691.39
2018-01-21T22:25:17.231Z,100679.64
2018-01-21T22:27:45.577Z,100677.42
2018-01-21T22:30:13.901Z,100690.12
2018-01-21T22:32:42.246Z,100696.73
2018-01-21T22:35:10.569Z,100685.28
2018-01-21T22:37:38.923Z,100672.22
2018-01-21T22:40:07.256Z,100676.66
2018-01-21T22:42:35.589Z,100674.36
2018-01-21T22:45:03.913Z,100665.75
2018-01-21T22:47:32.266Z,100677.58
2018-01-21T22:50:00.594Z,100673.61
2018-01-21T22:52:28.945Z,100671.06
2018-01-21T22:54:57.261Z,100657.37
2018-01-21T22:57:25.606Z,100652.97
2018-01-21T22:59:53.949Z,100652.98
2018-01-21T23:02:22.278Z,100652.42
2018-01-21T23:04:50.601Z,100663.38
2018-01-21T23:07:18.954Z,100658.49
2018-01-21T23:09:47.277Z,100654.91
2018-01-21T23:12:15.622Z,100648.80
2018-01-21T23:14:43.949Z,100642.65
2018-01-21T23:17:12.293Z,100642.33
2018-01-21T23:19:40.617Z,100619.45
2018-01-21T23:22:08.965Z,100619.15
2018-01-21T23:24:37.289Z,100615.62
2018-01-21T23:27:05.638Z,100618.84
2018-01-21T23:29:33.962Z,100593.95
2018-01-21T23:32:02.306Z,100599.15
2018-01-21T23:34:30.634Z,100600.42
2018-01-21T23:36:58.979Z,100611.77
2018-01-21T23:39:27.301Z,100598.45
2018-01-21T23:41:55.644Z,100593.78
2018-01-21T23:44:23.969Z,100585.09
2018-01-21T23:46:52.312Z,100580.85
2018-01-21T23:49:20.637Z,100590.24
2018-01-21T23:51:48.986Z,100582.16
2018-01-21T23:54:17.306Z,100573.30
2018-01-21T23:56:45.653Z,100577.58
2018-01-21T23:59:13.973Z,100567.87
